createdAt,value
2017-12-01T00:01:33.647Z,100667.33
2017-12-01T00:04:01.355Z,100665.67
2017-12-01T00:06:29.063Z,100662.39
2017-12-01T00:08:56.719Z,100669.13
2017-12-01T00:11:24.428Z,100668.30
2017-12-01T00:13:52.134Z,100671.33
2017-12-01T00:16:19.817Z,100669.54
2017-12-01T00:18:47.573Z,100673.53
2017-12-01T00:21:15.266Z,100674.63
2017-12-01T00:23:42.896Z,100669.43
2017-12-01T00:26:10.600Z,100674.35
2017-12-01T00:28:38.953Z,100681.77
2017-12-01T00:31:06.700Z,100678.91
2017-12-01T00:33:34.345Z,100674.52
2017-12-01T00:36:02.152Z,100673.27
2017-12-01T00:38:29.784Z,100682.05
2017-12-01T00:40:57.557Z,100679.59
2017-12-01T00:43:25.280Z,100683.42
2017-12-01T00:45:53.001Z,100683.70
2017-12-01T00:48:20.668Z,100690.56
2017-12-01T00:50:48.398Z,100693.00
2017-12-01T00:53:16.173Z,100696.27
2017-12-01T00:55:43.796Z,100695.70
2017-12-01T00:58:11.541Z,100698.42
2017-12-01T01:00:39.177Z,100704.20
2017-12-01T01:03:06.917Z,100699.37
2017-12-01T01:05:34.546Z,100692.92
2017-12-01T01:08:02.223Z,100701.99
2017-12-01T01:10:29.851Z,100706.11
2017-12-01T01:12:57.602Z,100705.70
2017-12-01T01:15:25.259Z,100716.69
2017-12-01T01:17:53.053Z,100711.61
2017-12-01T01:20:20.781Z,100714.21
2017-12-01T01:22:48.462Z,100719.39
2017-12-01T01:25:16.216Z,100724.59
2017-12-01T01:27:43.968Z,100722.34
2017-12-01T01:30:11.593Z,100727.27
2017-12-01T01:32:39.303Z,100724.52
2017-12-01T01:35:06.979Z,100727.53
2017-12-01T01:37:34.718Z,100731.14
2017-12-01T01:40:02.402Z,100737.60
2017-12-01T01:42:30.055Z,100742.44
2017-12-01T01:44:57.772Z,100737.50
2017-12-01T01:47:25.428Z,100738.36
2017-12-01T01:49:53.117Z,100743.98
2017-12-01T01:52:20.782Z,100743.03
2017-12-01T01:54:48.547Z,100743.45
2017-12-01T01:57:16.213Z,100735.19
2017-12-01T01:59:43.924Z,100739.83
2017-12-01T02:02:11.616Z,100742.55
2017-12-01T02:04:39.323Z,100743.79
2017-12-01T02:07:07.045Z,100739.11
2017-12-01T02:09:34.737Z,100751.56
2017-12-01T02:12:02.382Z,100753.22
2017-12-01T02:14:30.136Z,100752.09
2017-12-01T02:16:57.779Z,100752.90
2017-12-01T02:19:25.474Z,100763.44
2017-12-01T02:21:53.179Z,100763.39
2017-12-01T02:24:20.821Z,100763.67
2017-12-01T02:26:48.500Z,100763.67
2017-12-01T02:29:16.207Z,100766.14
2017-12-01T02:31:43.906Z,100774.80
2017-12-01T02:34:11.610Z,100770.70
2017-12-01T02:36:39.294Z,100775.23
2017-12-01T02:39:07.004Z,100782.95
2017-12-01T02:41:34.780Z,100776.78
2017-12-01T02:44:02.491Z,100783.66
2017-12-01T02:46:30.265Z,100789.72
2017-12-01T02:48:57.918Z,100792.20
2017-12-01T02:51:25.703Z,100793.30
2017-12-01T02:53:53.433Z,100797.05
2017-12-01T02:56:21.134Z,100797.78
2017-12-01T02:58:48.836Z,100798.38
2017-12-01T03:01:16.604Z,100798.16
2017-12-01T03:03:44.247Z,100799.44
2017-12-01T03:06:12.022Z,100802.23
2017-12-01T03:08:39.729Z,100809.80
2017-12-01T03:11:07.446Z,100803.93
2017-12-01T03:13:35.179Z,100807.83
2017-12-01T03:16:02.913Z,100810.59
2017-12-01T03:18:30.605Z,100811.81
2017-12-01T03:20:58.297Z,100815.94
2017-12-01T03:23:26.044Z,100812.77
2017-12-01T03:25:54.047Z,100812.19
2017-12-01T03:28:21.832Z,100825.49
2017-12-01T03:30:49.614Z,100825.89
2017-12-01T03:33:17.388Z,100821.50
2017-12-01T03:35:45.079Z,100828.62
2017-12-01T03:38:12.832Z,100830.41
2017-12-01T03:40:42.219Z,100831.24
2017-12-01T03:43:11.244Z,100833.69
2017-12-01T03:45:40.629Z,100840.42
2017-12-01T03:48:09.852Z,100838.37
2017-12-01T03:50:40.090Z,100842.31
2017-12-01T03:53:09.094Z,100846.29
2017-12-01T03:55:37.172Z,100847.52
2017-12-01T03:58:05.196Z,100849.02
2017-12-01T04:00:33.166Z,100856.30
2017-12-01T04:03:01.495Z,100849.95
2017-12-01T04:05:29.462Z,100856.53
2017-12-01T04:07:57.185Z,100856.09
2017-12-01T04:10:25.503Z,100864.05
2017-12-01T04:12:55.347Z,100864.89
2017-12-01T04:15:25.034Z,100871.36
2017-12-01T04:17:53.426Z,100862.58
2017-12-01T04:20:22.162Z,100867.66
2017-12-01T04:22:49.823Z,100866.97
2017-12-01T04:25:17.519Z,100865.35
2017-12-01T04:27:45.210Z,100864.40
2017-12-01T04:30:12.964Z,100870.33
2017-12-01T04:32:40.600Z,100871.55
2017-12-01T04:35:08.373Z,100869.77
2017-12-01T04:37:36.127Z,100869.50
2017-12-01T04:40:04.852Z,100876.37
2017-12-01T04:42:32.562Z,100876.78
2017-12-01T04:45:00.277Z,100882.55
2017-12-01T04:47:28.005Z,100885.59
2017-12-01T04:49:55.684Z,100886.69
2017-12-01T04:52:23.321Z,100891.79
2017-12-01T04:54:51.072Z,100898.84
2017-12-01T04:57:18.769Z,100897.31
2017-12-01T04:59:46.409Z,100897.48
2017-12-01T05:02:14.163Z,100902.29
2017-12-01T05:04:41.891Z,100905.45
2017-12-01T05:07:09.640Z,100914.95
2017-12-01T05:09:37.284Z,100916.05
2017-12-01T05:12:05.032Z,100920.32
2017-12-01T05:14:32.748Z,100923.06
2017-12-01T05:17:00.507Z,100920.32
2017-12-01T05:19:28.197Z,100926.23
2017-12-01T05:21:55.965Z,100928.73
2017-12-01T05:24:23.699Z,100927.37
2017-12-01T05:26:51.395Z,100928.88
2017-12-01T05:29:19.136Z,100928.19
2017-12-01T05:31:46.896Z,100926.53
2017-12-01T05:34:14.547Z,100932.56
2017-12-01T05:36:42.358Z,100931.46
2017-12-01T05:39:10.089Z,100933.61
2017-12-01T05:41:37.780Z,100945.86
2017-12-01T05:44:05.429Z,100942.28
2017-12-01T05:46:33.172Z,100942.16
2017-12-01T05:49:00.947Z,100946.70
2017-12-01T05:51:28.653Z,100948.91
2017-12-01T05:53:56.351Z,100940.81
2017-12-01T05:56:24.085Z,100949.17
2017-12-01T05:58:51.853Z,100948.09
2017-12-01T06:01:19.595Z,100936.56
2017-12-01T06:03:47.316Z,100940.53
2017-12-01T06:06:14.970Z,100945.79
2017-12-01T06:08:42.688Z,100950.33
2017-12-01T06:11:10.365Z,100952.39
2017-12-01T06:13:38.175Z,100958.45
2017-12-01T06:16:05.915Z,100957.79
2017-12-01T06:18:33.607Z,100961.76
2017-12-01T06:21:01.242Z,100969.88
2017-12-01T06:23:28.940Z,100968.51
2017-12-01T06:25:56.609Z,100971.95
2017-12-01T06:28:24.390Z,100957.09
2017-12-01T06:30:52.125Z,100970.16
2017-12-01T06:33:19.896Z,100978.42
2017-12-01T06:35:47.662Z,100979.36
2017-12-01T06:38:15.506Z,100983.60
2017-12-01T06:40:43.642Z,100988.41
2017-12-01T06:43:11.421Z,100991.28
2017-12-01T06:45:39.141Z,100993.49
2017-12-01T06:48:06.902Z,101001.71
2017-12-01T06:50:34.652Z,100999.20
2017-12-01T06:53:02.372Z,101008.97
2017-12-01T06:55:30.024Z,101014.89
2017-12-01T06:57:57.708Z,101018.62
2017-12-01T07:00:25.348Z,101024.27
2017-12-01T07:02:53.137Z,101024.38
2017-12-01T07:05:21.728Z,101029.07
2017-12-01T07:07:49.485Z,101030.30
2017-12-01T07:10:17.192Z,101030.56
2017-12-01T07:12:44.942Z,101041.50
2017-12-01T07:15:12.674Z,101041.86
2017-12-01T07:17:40.428Z,101045.69
2017-12-01T07:20:08.152Z,101054.47
2017-12-01T07:22:35.944Z,101058.05
2017-12-01T07:25:03.637Z,101058.05
2017-12-01T07:27:31.351Z,101063.55
2017-12-01T07:29:59.123Z,101061.48
2017-12-01T07:32:26.821Z,101066.41
2017-12-01T07:34:54.627Z,101074.66
2017-12-01T07:37:22.451Z,101077.44
2017-12-01T07:39:50.191Z,101074.98
2017-12-01T07:42:18.019Z,101074.63
2017-12-01T07:44:51.274Z,101078.55
2017-12-01T07:47:19.040Z,101079.91
2017-12-01T07:49:46.768Z,101081.47
2017-12-01T07:52:14.561Z,101089.03
2017-12-01T07:54:42.294Z,101085.23
2017-12-01T07:57:15.037Z,101089.68
2017-12-01T07:59:42.712Z,101093.30
2017-12-01T08:02:10.583Z,101099.54
2017-12-01T08:04:38.300Z,101097.66
2017-12-01T08:07:06.131Z,101099.86
2017-12-01T08:09:33.828Z,101115.28
2017-12-01T08:12:01.528Z,101114.09
2017-12-01T08:14:29.236Z,101120.42
2017-12-01T08:17:08.672Z,101122.09
2017-12-01T08:19:36.443Z,101128.84
2017-12-01T08:25:16.536Z,101135.84
2017-12-01T08:27:44.299Z,101134.63
2017-12-01T08:30:11.964Z,101142.67
2017-12-01T08:32:39.731Z,101143.02
2017-12-01T08:35:07.385Z,101147.71
2017-12-01T08:37:35.076Z,101149.50
2017-12-01T08:40:02.818Z,101148.80
2017-12-01T08:42:30.519Z,101151.09
2017-12-01T08:44:58.212Z,101149.88
2017-12-01T08:47:25.872Z,101155.37
2017-12-01T08:49:53.553Z,101165.48
2017-12-01T08:52:21.260Z,101165.41
2017-12-01T08:54:49.052Z,101171.25
2017-12-01T08:57:16.744Z,101177.47
2017-12-01T08:59:44.424Z,101172.92
2017-12-01T09:02:12.078Z,101184.67
2017-12-01T09:04:40.071Z,101186.22
2017-12-01T09:07:07.736Z,101185.16
2017-12-01T09:09:35.406Z,101187.03
2017-12-01T09:12:03.101Z,101186.41
2017-12-01T09:14:30.847Z,101186.92
2017-12-01T09:16:58.668Z,101195.57
2017-12-01T09:19:26.441Z,101192.94
2017-12-01T09:21:54.123Z,101197.11
2017-12-01T09:24:21.816Z,101207.09
2017-12-01T09:26:49.492Z,101217.78
2017-12-01T09:29:18.616Z,101213.37
2017-12-01T09:31:46.461Z,101214.26
2017-12-01T09:34:14.156Z,101213.27
2017-12-01T09:36:41.830Z,101212.82
2017-12-01T09:39:09.650Z,101218.42
2017-12-01T09:41:37.328Z,101218.69
2017-12-01T09:44:05.173Z,101221.13
2017-12-01T09:46:32.844Z,101223.08
2017-12-01T09:49:00.536Z,101230.91
2017-12-01T09:51:28.195Z,101227.88
2017-12-01T09:53:55.891Z,101235.04
2017-12-01T09:56:23.546Z,101240.02
2017-12-01T09:58:51.236Z,101237.55
2017-12-01T10:01:18.861Z,101241.84
2017-12-01T10:03:46.561Z,101245.85
2017-12-01T10:06:14.213Z,101243.95
2017-12-01T10:08:41.926Z,101244.81
2017-12-01T10:11:09.562Z,101244.44
2017-12-01T10:13:37.265Z,101245.59
2017-12-01T10:16:04.978Z,101246.59
2017-12-01T10:18:32.638Z,101252.14
2017-12-01T10:21:00.394Z,101249.50
2017-12-01T10:23:28.177Z,101242.45
2017-12-01T10:25:55.891Z,101248.24
2017-12-01T10:28:23.518Z,101248.36
2017-12-01T10:30:51.209Z,101250.84
2017-12-01T10:33:18.843Z,101255.95
2017-12-01T10:35:46.553Z,101258.84
2017-12-01T10:38:14.201Z,101262.97
2017-12-01T10:40:41.893Z,101267.94
2017-12-01T10:43:09.661Z,101259.39
2017-12-01T10:45:37.435Z,101259.57
2017-12-01T10:48:05.166Z,101257.53
2017-12-01T10:50:32.939Z,101263.47
2017-12-01T10:53:00.587Z,101260.60
2017-12-01T10:55:28.341Z,101260.48
2017-12-01T10:57:55.957Z,101262.92
2017-12-01T11:00:23.628Z,101272.17
2017-12-01T11:02:51.337Z,101273.84
2017-12-01T11:05:19.073Z,101270.25
2017-12-01T11:07:46.705Z,101268.31
2017-12-01T11:10:14.458Z,101266.39
2017-12-01T11:12:42.191Z,101271.89
2017-12-01T11:15:09.932Z,101275.62
2017-12-01T11:17:37.638Z,101278.82
2017-12-01T11:20:05.326Z,101274.84
2017-12-01T11:22:35.464Z,101272.64
2017-12-01T11:25:03.144Z,101271.42
2017-12-01T11:27:30.774Z,101275.17
2017-12-01T11:29:58.451Z,101269.41
2017-12-01T11:32:26.152Z,101276.34
2017-12-01T11:34:53.847Z,101271.92
2017-12-01T11:37:21.478Z,101267.34
2017-12-01T11:39:49.241Z,101276.87
2017-12-01T11:42:17.910Z,101274.25
2017-12-01T11:44:45.604Z,101288.05
2017-12-01T11:47:13.242Z,101286.83
2017-12-01T11:49:40.905Z,101291.08
2017-12-01T11:52:08.620Z,101289.27
2017-12-01T11:54:36.398Z,101295.35
2017-12-01T11:57:04.060Z,101303.92
2017-12-01T11:59:31.771Z,101294.80
2017-12-01T12:01:59.448Z,101294.36
2017-12-01T12:04:27.168Z,101296.68
2017-12-01T12:06:54.856Z,101292.80
2017-12-01T12:09:22.515Z,101304.92
2017-12-01T12:11:50.287Z,101306.28
2017-12-01T12:14:17.989Z,101304.86
2017-12-01T12:16:45.738Z,101310.77
2017-12-01T12:19:13.393Z,101303.88
2017-12-01T12:21:41.141Z,101312.73
2017-12-01T12:24:08.789Z,101316.98
2017-12-01T12:26:36.509Z,101321.95
2017-12-01T12:29:04.251Z,101314.11
2017-12-01T12:31:31.934Z,101320.72
2017-12-01T12:33:59.639Z,101319.48
2017-12-01T12:36:27.434Z,101323.92
2017-12-01T12:38:55.155Z,101325.86
2017-12-01T12:41:22.899Z,101330.41
2017-12-01T12:43:50.647Z,101336.89
2017-12-01T12:46:18.428Z,101333.98
2017-12-01T12:48:46.152Z,101338.55
2017-12-01T12:51:13.865Z,101337.43
2017-12-01T12:53:41.649Z,101340.31
2017-12-01T12:56:09.460Z,101341.94
2017-12-01T12:58:37.118Z,101345.64
2017-12-01T13:01:04.948Z,101355.55
2017-12-01T13:03:32.650Z,101355.40
2017-12-01T13:06:00.429Z,101356.88
2017-12-01T13:08:28.138Z,101364.58
2017-12-01T13:10:55.883Z,101364.02
2017-12-01T13:13:23.679Z,101371.43
2017-12-01T13:15:51.478Z,101367.78
2017-12-01T13:18:19.198Z,101372.70
2017-12-01T13:20:46.888Z,101373.52
2017-12-01T13:23:14.592Z,101371.16
2017-12-01T13:25:42.347Z,101378.17
2017-12-01T13:28:10.029Z,101378.56
2017-12-01T13:30:37.736Z,101386.80
2017-12-01T13:33:05.379Z,101392.86
2017-12-01T13:35:33.131Z,101395.34
2017-12-01T13:38:00.905Z,101398.64
2017-12-01T13:40:28.669Z,101402.08
2017-12-01T13:43:00.161Z,101402.08
2017-12-01T13:45:33.242Z,101408.85
2017-12-01T13:48:01.129Z,101417.53
2017-12-01T13:50:28.908Z,101412.56
2017-12-01T13:52:56.643Z,101419.72
2017-12-01T13:55:24.419Z,101421.49
2017-12-01T13:57:52.093Z,101416.79
2017-12-01T14:00:19.855Z,101419.97
2017-12-01T14:02:47.513Z,101427.24
2017-12-01T14:05:15.189Z,101423.53
2017-12-01T14:07:42.929Z,101423.53
2017-12-01T14:10:10.658Z,101425.75
2017-12-01T14:12:38.343Z,101438.45
2017-12-01T14:15:05.983Z,101438.69
2017-12-01T14:17:33.717Z,101436.05
2017-12-01T14:20:01.428Z,101438.95
2017-12-01T14:22:29.178Z,101446.80
2017-12-01T14:24:56.805Z,101449.98
2017-12-01T14:27:24.539Z,101453.81
2017-12-01T14:29:52.191Z,101457.37
2017-12-01T14:32:19.858Z,101460.25
2017-12-01T14:34:47.691Z,101463.42
2017-12-01T14:37:15.387Z,101470.04
2017-12-01T14:39:43.096Z,101475.67
2017-12-01T14:42:10.773Z,101484.47
2017-12-01T14:44:38.469Z,101487.53
2017-12-01T14:47:06.187Z,101487.34
2017-12-01T14:49:33.844Z,101486.93
2017-12-01T14:52:01.531Z,101494.20
2017-12-01T14:54:29.218Z,101502.05
2017-12-01T14:56:56.892Z,101502.47
2017-12-01T14:59:24.565Z,101505.88
2017-12-01T15:01:52.326Z,101504.66
2017-12-01T15:04:19.982Z,101511.72
2017-12-01T15:06:47.727Z,101515.70
2017-12-01T15:09:15.369Z,101520.26
2017-12-01T15:11:43.055Z,101523.47
2017-12-01T15:14:10.828Z,101526.22
2017-12-01T15:16:38.595Z,101534.38
2017-12-01T15:19:07.200Z,101538.35
2017-12-01T15:21:34.979Z,101537.48
2017-12-01T15:24:02.707Z,101544.25
2017-12-01T15:26:30.501Z,101550.67
2017-12-01T15:28:58.253Z,101554.41
2017-12-01T15:31:26.026Z,101558.85
2017-12-01T15:33:53.745Z,101557.89
2017-12-01T15:36:21.493Z,101553.03
2017-12-01T15:38:49.227Z,101563.10
2017-12-01T15:41:17.009Z,101566.55
2017-12-01T15:43:44.757Z,101568.70
2017-12-01T15:46:12.453Z,101576.27
2017-12-01T15:48:40.216Z,101572.14
2017-12-01T15:51:07.987Z,101576.16
2017-12-01T15:53:35.757Z,101578.34
2017-12-01T15:56:03.522Z,101576.69
2017-12-01T15:58:31.333Z,101581.40
2017-12-01T16:00:59.036Z,101578.22
2017-12-01T16:03:26.832Z,101577.38
2017-12-01T16:05:54.583Z,101585.50
2017-12-01T16:08:22.405Z,101591.69
2017-12-01T16:10:50.242Z,101593.61
2017-12-01T16:13:17.968Z,101594.45
2017-12-01T16:15:45.614Z,101594.27
2017-12-01T16:18:13.318Z,101598.16
2017-12-01T16:20:40.981Z,101598.16
2017-12-01T16:23:08.744Z,101602.56
2017-12-01T16:25:36.447Z,101608.61
2017-12-01T16:28:04.164Z,101612.36
2017-12-01T16:30:31.925Z,101611.52
2017-12-01T16:33:08.248Z,101612.74
2017-12-01T16:35:27.396Z,101619.25
2017-12-01T16:37:55.140Z,101617.41
2017-12-01T16:40:22.847Z,101615.03
2017-12-01T16:42:50.537Z,101622.34
2017-12-01T16:45:18.248Z,101627.13
2017-12-01T16:47:45.996Z,101628.35
2017-12-01T16:50:13.709Z,101636.20
2017-12-01T16:52:41.428Z,101638.23
2017-12-01T16:55:09.165Z,101637.00
2017-12-01T16:57:36.941Z,101646.34
2017-12-01T17:00:04.708Z,101644.54
2017-12-01T17:02:32.483Z,101648.14
2017-12-01T17:05:00.180Z,101655.33
2017-12-01T17:07:27.984Z,101658.77
2017-12-01T17:09:55.725Z,101663.75
2017-12-01T17:12:23.465Z,101664.75
2017-12-01T17:14:51.144Z,101671.09
2017-12-01T17:17:18.897Z,101675.66
2017-12-01T17:19:46.526Z,101681.16
2017-12-01T17:22:14.293Z,101681.39
2017-12-01T17:24:41.996Z,101679.17
2017-12-01T17:27:09.673Z,101684.98
2017-12-01T17:29:37.360Z,101686.52
2017-12-01T17:32:04.988Z,101685.30
2017-12-01T17:34:32.677Z,101688.16
2017-12-01T17:37:00.383Z,101684.98
2017-12-01T17:39:28.157Z,101699.61
2017-12-01T17:41:55.797Z,101706.91
2017-12-01T17:44:23.480Z,101702.59
2017-12-01T17:46:51.114Z,101711.96
2017-12-01T17:49:18.818Z,101707.83
2017-12-01T17:51:46.536Z,101709.86
2017-12-01T17:54:14.288Z,101711.13
2017-12-01T17:56:41.948Z,101716.74
2017-12-01T17:59:09.635Z,101718.80
2017-12-01T18:01:37.262Z,101717.92
2017-12-01T18:04:05.023Z,101729.39
2017-12-01T18:06:32.679Z,101733.27
2017-12-01T18:09:00.386Z,101738.11
2017-12-01T18:11:28.019Z,101741.82
2017-12-01T18:13:55.725Z,101742.62
2017-12-01T18:16:23.372Z,101750.77
2017-12-01T18:18:51.051Z,101752.00
2017-12-01T18:21:18.704Z,101746.06
2017-12-01T18:23:46.417Z,101756.73
2017-12-01T18:26:14.054Z,101745.53
2017-12-01T18:28:41.745Z,101753.09
2017-12-01T18:31:10.010Z,101760.52
2017-12-01T18:33:37.790Z,101755.43
2017-12-01T18:36:05.446Z,101756.80
2017-12-01T18:38:33.134Z,101759.56
2017-12-01T18:41:00.785Z,101764.53
2017-12-01T18:43:28.481Z,101774.82
2017-12-01T18:45:56.111Z,101769.73
2017-12-01T18:48:23.782Z,101776.36
2017-12-01T18:50:51.417Z,101780.80
2017-12-01T18:53:19.136Z,101785.81
2017-12-01T18:55:46.791Z,101790.48
2017-12-01T18:58:14.524Z,101793.13
2017-12-01T19:00:42.227Z,101792.92
2017-12-01T19:03:09.911Z,101803.36
2017-12-01T19:05:40.315Z,101807.07
2017-12-01T19:08:08.665Z,101806.37
2017-12-01T19:10:36.432Z,101804.84
2017-12-01T19:13:04.248Z,101806.86
2017-12-01T19:15:31.933Z,101817.60
2017-12-01T19:20:35.973Z,101821.38
2017-12-01T19:23:03.628Z,101826.99
2017-12-01T19:25:31.355Z,101828.20
2017-12-01T19:27:58.995Z,101828.27
2017-12-01T19:30:26.725Z,101832.77
2017-12-01T19:32:54.392Z,101830.75
2017-12-01T19:35:22.176Z,101833.17
2017-12-01T19:37:49.813Z,101833.83
2017-12-01T19:40:17.574Z,101834.25
2017-12-01T19:42:45.285Z,101836.63
2017-12-01T19:45:13.052Z,101845.30
2017-12-01T19:47:40.768Z,101858.16
2017-12-01T19:50:08.569Z,101857.69
2017-12-01T19:52:36.393Z,101855.72
2017-12-01T19:55:04.386Z,101858.30
2017-12-01T19:57:32.270Z,101871.05
2017-12-01T20:00:00.096Z,101875.23
2017-12-01T20:02:27.953Z,101875.97
2017-12-01T20:04:55.843Z,101873.99
2017-12-01T20:07:23.572Z,101874.77
2017-12-01T20:09:51.321Z,101877.00
2017-12-01T20:12:19.044Z,101877.34
2017-12-01T20:14:46.804Z,101875.20
2017-12-01T20:17:14.535Z,101875.85
2017-12-01T20:19:42.312Z,101879.92
2017-12-01T20:22:10.020Z,101884.21
2017-12-01T20:24:37.779Z,101887.93
2017-12-01T20:27:05.464Z,101887.13
2017-12-01T20:29:33.257Z,101890.87
2017-12-01T20:32:00.982Z,101895.21
2017-12-01T20:34:28.831Z,101896.30
2017-12-01T20:36:56.477Z,101895.91
2017-12-01T20:39:24.238Z,101902.74
2017-12-01T20:41:51.985Z,101906.78
2017-12-01T20:44:19.808Z,101909.62
2017-12-01T20:46:47.521Z,101914.09
2017-12-01T20:49:15.289Z,101913.95
2017-12-01T20:51:43.060Z,101916.71
2017-12-01T20:54:10.825Z,101917.28
2017-12-01T20:56:38.551Z,101924.07
2017-12-01T20:59:06.313Z,101925.66
2017-12-01T21:01:34.088Z,101927.19
2017-12-01T21:04:01.814Z,101933.96
2017-12-01T21:06:29.571Z,101926.02
2017-12-01T21:08:57.216Z,101935.33
2017-12-01T21:11:24.899Z,101932.70
2017-12-01T21:13:52.611Z,101936.20
2017-12-01T21:16:20.368Z,101936.22
2017-12-01T21:18:48.095Z,101933.38
2017-12-01T21:21:15.878Z,101940.76
2017-12-01T21:23:43.657Z,101934.67
2017-12-01T21:26:11.355Z,101944.34
2017-12-01T21:28:39.119Z,101952.75
2017-12-01T21:31:06.916Z,101950.92
2017-12-01T21:33:34.701Z,101948.63
2017-12-01T21:36:02.478Z,101948.59
2017-12-01T21:38:30.207Z,101949.81
2017-12-01T21:40:57.964Z,101949.89
2017-12-01T21:43:25.688Z,101957.01
2017-12-01T21:45:53.463Z,101953.39
2017-12-01T21:48:21.217Z,101956.27
2017-12-01T21:50:49.007Z,101963.42
2017-12-01T21:53:16.708Z,101958.88
2017-12-01T21:55:44.457Z,101960.78
2017-12-01T21:58:12.202Z,101968.91
2017-12-01T22:00:39.944Z,101969.86
2017-12-01T22:03:07.630Z,101964.29
2017-12-01T22:05:35.349Z,101963.61
2017-12-01T22:08:03.048Z,101966.34
2017-12-01T22:10:30.749Z,101962.02
2017-12-01T22:12:58.444Z,101966.53
2017-12-01T22:15:26.229Z,101973.53
2017-12-01T22:17:53.949Z,101972.34
2017-12-01T22:20:21.732Z,101983.71
2017-12-01T22:22:49.465Z,101981.41
2017-12-01T22:25:17.163Z,101988.11
2017-12-01T22:27:44.902Z,101990.75
2017-12-01T22:30:12.706Z,101999.30
2017-12-01T22:32:40.378Z,101997.06
2017-12-01T22:35:08.081Z,101997.77
2017-12-01T22:37:35.787Z,101999.87
2017-12-01T22:40:03.512Z,102005.84
2017-12-01T22:42:31.242Z,102009.64
2017-12-01T22:44:58.931Z,102011.02
2017-12-01T22:47:26.652Z,102012.39
2017-12-01T22:49:54.356Z,102012.86
2017-12-01T22:52:22.110Z,102007.61
2017-12-01T22:54:49.766Z,102008.27
2017-12-01T22:57:17.503Z,102003.73
2017-12-01T22:59:45.208Z,102007.19
2017-12-01T23:02:12.946Z,102002.64
2017-12-01T23:04:40.659Z,102010.88
2017-12-01T23:07:08.351Z,102016.69
2017-12-01T23:09:36.036Z,102023.36
2017-12-01T23:12:03.701Z,102018.16
2017-12-01T23:14:31.346Z,102013.80
2017-12-01T23:16:59.067Z,102027.31
2017-12-01T23:19:26.689Z,102025.34
2017-12-01T23:21:54.424Z,102031.25
2017-12-01T23:24:22.066Z,102029.22
2017-12-01T23:26:49.747Z,102024.76
2017-12-01T23:29:17.368Z,102032.47
2017-12-01T23:31:45.127Z,102035.11
2017-12-01T23:34:12.833Z,102023.57
2017-12-01T23:36:40.588Z,102024.20
2017-12-01T23:39:08.328Z,102020.80
2017-12-01T23:41:36.061Z,102023.72
2017-12-01T23:44:03.762Z,102019.92
2017-12-01T23:46:31.509Z,102016.31
2017-12-01T23:48:59.206Z,102017.34
2017-12-01T23:51:26.878Z,102017.34
2017-12-01T23:53:54.581Z,102026.28
2017-12-01T23:56:22.333Z,102023.77
2017-12-01T23:58:50.013Z,102027.66
